Time;durP1;ratioP1;P1;durP2;ratioP2;P2;SDS_P1;SDS_P2;PMS_P1;PMS_P2;Temp;Humidity;BMP_temperature;BMP_pressure;BME280_temperature;BME280_humidity;BME280_pressure;Samples;Min_cycle;Max_cycle;Signal;HPM_P1;HPM_P2
2021/04/17 00:02:19;;;;;;;29.90;27.90;;;5.20;77.80;;;;;;5093097;28;20794;-76
2021/04/17 00:04:46;;;;;;;28.67;26.88;;;5.20;77.90;;;;;;5093269;28;20661;-76
2021/04/17 00:07:15;;;;;;;28.55;26.75;;;5.20;78.20;;;;;;5092458;28;20199;-76
2021/04/17 00:09:42;;;;;;;27.77;26.00;;;5.20;77.80;;;;;;5092249;28;20309;-76
2021/04/17 00:12:14;;;;;;;29.60;27.70;;;5.10;77.90;;;;;;5093275;28;20302;-76
2021/04/17 00:14:41;;;;;;;29.73;27.83;;;5.10;77.90;;;;;;5093098;28;20285;-77
2021/04/17 00:17:08;;;;;;;28.48;26.33;;;5.00;77.90;;;;;;5091688;28;20196;-76
2021/04/17 00:19:36;;;;;;;28.58;26.77;;;5.00;78.00;;;;;;5092883;28;20223;-76
2021/04/17 00:22:03;;;;;;;28.50;26.77;;;4.90;82.60;;;;;;5092461;28;20283;-76
2021/04/17 00:24:30;;;;;;;27.77;26.08;;;4.90;80.30;;;;;;5092964;28;20191;-76
2021/04/17 00:26:56;;;;;;;28.67;26.77;;;4.80;79.10;;;;;;5092310;28;20616;-76
2021/04/17 00:29:24;;;;;;;29.50;27.60;;;4.70;79.10;;;;;;5092575;28;20199;-76
2021/04/17 00:31:50;;;;;;;29.73;27.75;;;4.80;78.70;;;;;;5092662;28;20223;-76
2021/04/17 00:34:16;;;;;;;28.45;26.55;;;4.80;78.50;;;;;;5092729;28;20569;-76
2021/04/17 00:36:43;;;;;;;29.40;27.48;;;4.60;78.70;;;;;;5092036;28;20294;-76
2021/04/17 00:39:09;;;;;;;29.25;27.25;;;4.50;79.10;;;;;;5092646;28;20628;-76
2021/04/17 00:41:36;;;;;;;29.13;27.20;;;4.60;79.20;;;;;;5092520;28;20294;-76
2021/04/17 00:44:03;;;;;;;27.77;25.98;;;4.50;79.20;;;;;;5092662;28;20200;-77
2021/04/17 00:46:31;;;;;;;29.85;27.95;;;4.40;80.40;;;;;;5091711;28;20705;-77
2021/04/17 00:48:58;;;;;;;27.95;25.88;;;4.40;80.20;;;;;;5092410;28;20552;-76
2021/04/17 00:51:24;;;;;;;29.33;27.42;;;4.40;80.10;;;;;;5092172;28;20376;-76
2021/04/17 00:53:51;;;;;;;29.00;27.00;;;4.40;79.80;;;;;;5092541;28;20672;-77
2021/04/17 00:56:20;;;;;;;29.02;27.15;;;4.30;80.00;;;;;;5091783;28;20407;-77
2021/04/17 00:58:47;;;;;;;28.88;27.00;;;4.30;80.20;;;;;;5092438;28;20201;-77
2021/04/17 01:01:14;;;;;;;28.80;27.00;;;4.30;80.00;;;;;;5092181;28;20714;-77
2021/04/17 01:03:49;;;;;;;29.05;27.02;;;4.20;80.00;;;;;;5092237;28;20230;-76
2021/04/17 01:06:22;;;;;;;28.90;26.90;;;4.20;80.40;;;;;;5091740;28;20656;-76
2021/04/17 01:08:55;;;;;;;29.00;27.10;;;4.20;80.50;;;;;;5092392;28;20201;-77
2021/04/17 01:11:27;;;;;;;29.85;27.85;;;4.20;80.40;;;;;;5091965;28;20310;-76
2021/04/17 01:13:55;;;;;;;27.58;25.75;;;4.20;80.30;;;;;;5092207;28;20286;-75
2021/04/17 01:16:23;;;;;;;28.42;26.60;;;4.20;81.90;;;;;;5090998;28;20289;-75
2021/04/17 01:18:52;;;;;;;29.20;27.30;;;4.10;81.30;;;;;;5092143;28;20201;-76
2021/04/17 01:21:19;;;;;;;29.83;27.92;;;4.20;81.40;;;;;;5094063;28;20657;-76
2021/04/17 01:23:49;;;;;;;29.42;27.30;;;4.20;80.70;;;;;;5096155;28;20744;-75
2021/04/17 01:26:19;;;;;;;29.42;27.52;;;4.10;80.70;;;;;;5095637;28;20744;-76
2021/04/17 01:28:48;;;;;;;28.80;26.90;;;4.00;81.10;;;;;;5096105;28;20613;-76
2021/04/17 01:31:16;;;;;;;28.58;26.67;;;4.10;81.30;;;;;;5095903;28;20234;-76
2021/04/17 01:33:44;;;;;;;27.30;25.40;;;4.10;80.70;;;;;;5095915;28;20633;-75
2021/04/17 01:36:12;;;;;;;26.90;25.20;;;4.00;81.10;;;;;;5095418;28;20248;-76
2021/04/17 01:38:42;;;;;;;28.15;26.27;;;4.10;80.90;;;;;;5096069;28;20207;-77
2021/04/17 01:41:13;;;;;;;28.60;26.80;;;4.10;80.80;;;;;;5095949;28;20215;-76
2021/04/17 01:43:42;;;;;;;28.98;27.05;;;4.20;80.40;;;;;;5095867;28;20686;-77
2021/04/17 01:46:12;;;;;;;29.10;27.20;;;4.20;80.30;;;;;;5095339;28;20202;-76
2021/04/17 01:48:38;;;;;;;28.20;26.30;;;4.10;80.20;;;;;;5095913;28;20234;-76
2021/04/17 01:51:06;;;;;;;28.65;26.55;;;4.10;80.40;;;;;;5095654;28;20715;-76
2021/04/17 01:53:37;;;;;;;26.90;25.20;;;4.00;80.70;;;;;;5095490;28;20663;-76
2021/04/17 01:56:05;;;;;;;28.75;26.73;;;3.90;80.90;;;;;;5095189;28;20204;-75
2021/04/17 01:58:33;;;;;;;29.33;27.35;;;3.80;81.30;;;;;;5095471;28;20230;-76
2021/04/17 02:01:00;;;;;;;28.83;26.73;;;3.80;81.40;;;;;;5095496;28;20297;-76
2021/04/17 02:03:27;;;;;;;28.95;26.95;;;3.70;81.60;;;;;;5095563;28;20243;-76
2021/04/17 02:05:54;;;;;;;28.08;25.88;;;3.70;81.90;;;;;;5094860;28;20220;-75
2021/04/17 02:08:21;;;;;;;27.80;25.85;;;3.60;82.10;;;;;;5095346;28;20295;-75
2021/04/17 02:10:49;;;;;;;28.27;26.35;;;3.60;82.40;;;;;;5095335;28;20309;-76
2021/04/17 02:13:17;;;;;;;27.88;25.98;;;3.50;82.40;;;;;;5095254;28;20318;-76
2021/04/17 02:15:44;;;;;;;28.75;26.90;;;3.50;82.70;;;;;;5094235;28;20282;-75
2021/04/17 02:18:24;;;;;;;28.17;26.38;;;3.50;82.90;;;;;;5095337;28;20656;-76
2021/04/17 02:20:58;;;;;;;29.35;27.25;;;3.50;83.10;;;;;;5094691;28;20213;-77
2021/04/17 02:23:26;;;;;;;29.48;27.35;;;3.50;82.90;;;;;;5095173;28;20279;-76
2021/04/17 02:25:52;;;;;;;28.23;26.42;;;3.50;82.80;;;;;;5094427;28;20680;-75
2021/04/17 02:28:19;;;;;;;30.55;28.30;;;3.50;83.20;;;;;;5095112;28;20199;-76
2021/04/17 02:30:45;;;;;;;29.77;27.73;;;3.50;83.30;;;;;;5094849;28;20257;-76
2021/04/17 02:33:13;;;;;;;29.25;27.23;;;3.60;83.00;;;;;;5094044;28;20195;-76
2021/04/17 02:35:39;;;;;;;29.58;27.58;;;3.60;82.90;;;;;;5094167;28;20289;-76
2021/04/17 02:38:05;;;;;;;28.77;26.90;;;3.60;83.10;;;;;;5094914;28;20202;-76
2021/04/17 02:40:32;;;;;;;29.73;27.60;;;3.60;83.20;;;;;;5094626;28;20214;-76
2021/04/17 02:42:58;;;;;;;31.27;28.75;;;3.60;83.30;;;;;;5094790;28;20284;-76
2021/04/17 02:45:24;;;;;;;28.58;26.67;;;3.60;83.50;;;;;;5094479;28;20609;-77
2021/04/17 02:47:51;;;;;;;29.00;26.92;;;3.70;83.30;;;;;;5094136;28;20575;-75
2021/04/17 02:50:20;;;;;;;29.23;27.20;;;3.70;82.70;;;;;;5094402;28;20312;-75
2021/04/17 02:52:47;;;;;;;30.60;28.17;;;3.70;82.80;;;;;;5094547;28;20221;-76
2021/04/17 02:55:13;;;;;;;29.02;27.10;;;3.60;83.10;;;;;;5094417;28;20191;-76
2021/04/17 02:57:40;;;;;;;29.50;27.30;;;3.60;83.10;;;;;;5093988;28;20199;-75
2021/04/17 03:00:09;;;;;;;28.23;26.33;;;3.60;83.20;;;;;;5094216;28;20643;-75
2021/04/17 03:02:35;;;;;;;30.05;28.00;;;3.60;83.30;;;;;;5094074;28;20199;-75
2021/04/17 03:05:01;;;;;;;29.45;27.58;;;3.60;83.30;;;;;;5094237;28;20660;-76
2021/04/17 03:07:29;;;;;;;28.30;26.40;;;3.60;83.10;;;;;;5093922;28;20200;-76
2021/04/17 03:09:55;;;;;;;29.38;27.48;;;3.70;82.90;;;;;;5094319;28;20267;-76
2021/04/17 03:12:21;;;;;;;29.70;27.60;;;3.70;83.00;;;;;;5094183;28;20315;-76
2021/04/17 03:14:48;;;;;;;30.35;28.25;;;3.70;83.30;;;;;;5094081;28;20286;-76
2021/04/17 03:17:15;;;;;;;29.83;27.70;;;3.70;83.50;;;;;;5093011;28;20201;-76
2021/04/17 03:19:41;;;;;;;30.13;27.92;;;3.70;83.60;;;;;;5093965;28;20198;-76
2021/04/17 03:22:08;;;;;;;30.17;28.13;;;3.70;83.60;;;;;;5093862;28;20191;-77
2021/04/17 03:24:35;;;;;;;29.85;27.75;;;3.60;83.80;;;;;;5093940;28;20720;-76
2021/04/17 03:27:02;;;;;;;29.63;27.67;;;3.70;83.50;;;;;;5093500;28;20195;-76
2021/04/17 03:29:29;;;;;;;31.33;29.00;;;3.60;83.60;;;;;;5093684;28;20198;-77
2021/04/17 03:31:55;;;;;;;31.95;29.40;;;3.70;83.40;;;;;;5093709;28;20257;-76
2021/04/17 03:34:22;;;;;;;30.13;28.02;;;3.80;83.20;;;;;;5093698;28;20204;-76
2021/04/17 03:36:48;;;;;;;29.77;27.75;;;3.70;83.10;;;;;;5093290;28;20200;-76
2021/04/17 03:39:15;;;;;;;32.05;29.60;;;3.60;83.30;;;;;;5093745;28;20206;-76
2021/04/17 03:41:42;;;;;;;30.85;28.73;;;3.60;83.60;;;;;;5093487;28;20211;-76
2021/04/17 03:44:08;;;;;;;30.92;28.73;;;3.60;83.60;;;;;;5093398;28;20330;-77
2021/04/17 03:46:35;;;;;;;31.05;28.73;;;3.70;83.40;;;;;;5092991;28;20210;-76
2021/04/17 03:49:02;;;;;;;34.40;31.48;;;3.60;83.30;;;;;;5093454;28;20199;-76
2021/04/17 03:51:28;;;;;;;30.65;28.40;;;3.60;83.70;;;;;;5093313;28;20219;-77
2021/04/17 03:53:54;;;;;;;32.05;29.40;;;3.50;84.00;;;;;;5093397;28;20388;-76
2021/04/17 03:56:21;;;;;;;30.52;27.95;;;3.50;84.20;;;;;;5092814;28;20256;-76
2021/04/17 03:58:48;;;;;;;31.30;28.75;;;3.60;84.10;;;;;;5093074;28;20202;-76
2021/04/17 04:01:15;;;;;;;31.67;29.17;;;3.70;83.80;;;;;;5093194;28;20581;-75
2021/04/17 04:03:42;;;;;;;35.40;32.83;;;3.70;83.70;;;;;;5093201;28;20203;-76
2021/04/17 04:06:08;;;;;;;31.80;29.42;;;3.70;83.70;;;;;;5092546;28;20291;-76
2021/04/17 04:08:35;;;;;;;34.45;31.75;;;3.60;84.00;;;;;;5093111;28;20204;-76
2021/04/17 04:11:02;;;;;;;32.70;29.88;;;3.50;84.20;;;;;;5092772;28;20227;-76
2021/04/17 04:13:28;;;;;;;32.03;29.80;;;3.50;84.50;;;;;;5092757;28;20290;-76
2021/04/17 04:15:55;;;;;;;32.15;29.95;;;3.50;84.70;;;;;;5092092;28;20195;-76
2021/04/17 04:18:22;;;;;;;32.17;29.83;;;3.50;84.60;;;;;;5093025;28;20290;-76
2021/04/17 04:20:48;;;;;;;32.13;29.73;;;3.50;84.50;;;;;;5092582;28;20715;-76
2021/04/17 04:23:15;;;;;;;32.30;29.35;;;3.50;84.40;;;;;;5092807;28;20658;-75
2021/04/17 04:25:41;;;;;;;32.83;30.40;;;3.40;84.70;;;;;;5092275;28;20332;-76
2021/04/17 04:28:07;;;;;;;32.47;29.77;;;3.40;85.00;;;;;;5092778;28;20198;-76
2021/04/17 04:30:34;;;;;;;33.25;30.75;;;3.40;84.80;;;;;;5092715;28;20222;-76
2021/04/17 04:33:01;;;;;;;32.58;30.15;;;3.40;84.80;;;;;;5092776;28;20285;-77
2021/04/17 04:35:28;;;;;;;36.13;33.33;;;3.40;85.10;;;;;;5092026;28;20290;-77
2021/04/17 04:37:54;;;;;;;31.60;29.00;;;3.40;84.90;;;;;;5092518;28;20285;-76
2021/04/17 04:40:21;;;;;;;33.50;30.75;;;3.40;84.90;;;;;;5092311;28;20222;-76
2021/04/17 04:42:47;;;;;;;32.33;29.90;;;3.40;84.80;;;;;;5092508;28;20657;-76
2021/04/17 04:45:14;;;;;;;33.38;30.88;;;3.30;85.10;;;;;;5092474;28;20280;-76
2021/04/17 04:47:41;;;;;;;34.25;31.60;;;3.40;85.30;;;;;;5091651;28;20614;-76
2021/04/17 04:50:10;;;;;;;33.28;30.77;;;3.40;85.10;;;;;;5092390;28;20213;-76
2021/04/17 04:52:37;;;;;;;34.13;30.55;;;3.50;85.00;;;;;;5092248;28;20221;-75
2021/04/17 04:55:04;;;;;;;34.60;31.48;;;3.50;84.70;;;;;;5091933;28;20200;-75
2021/04/17 04:57:30;;;;;;;33.42;30.77;;;3.50;85.00;;;;;;5091711;28;20202;-75
2021/04/17 04:59:57;;;;;;;32.58;30.10;;;3.50;84.90;;;;;;5092276;28;20699;-75
2021/04/17 05:02:23;;;;;;;32.92;30.42;;;3.60;84.60;;;;;;5092148;28;20202;-75
2021/04/17 05:04:50;;;;;;;35.50;32.90;;;3.50;84.60;;;;;;5092263;28;20670;-75
2021/04/17 05:07:17;;;;;;;36.42;33.63;;;3.60;84.70;;;;;;5091613;28;20207;-76
2021/04/17 05:09:43;;;;;;;33.17;30.63;;;3.70;84.20;;;;;;5092151;28;20301;-75
2021/04/17 05:12:10;;;;;;;33.88;31.30;;;3.70;84.10;;;;;;5092292;28;20218;-75
2021/04/17 05:14:36;;;;;;;35.00;32.00;;;3.70;84.20;;;;;;5092304;28;20202;-76
2021/04/17 05:17:03;;;;;;;33.63;31.15;;;3.80;84.00;;;;;;5091074;28;20288;-75
2021/04/17 05:19:29;;;;;;;35.00;32.33;;;3.80;83.90;;;;;;5092083;28;20534;-76
2021/04/17 05:21:56;;;;;;;33.65;30.98;;;3.90;84.00;;;;;;5091692;28;20197;-76
2021/04/17 05:24:23;;;;;;;32.92;30.42;;;3.90;83.70;;;;;;5092132;28;20199;-76
2021/04/17 05:26:50;;;;;;;35.85;33.30;;;4.00;83.50;;;;;;5091519;28;20205;-76
2021/04/17 05:29:16;;;;;;;35.92;33.28;;;4.10;83.10;;;;;;5092059;28;20240;-75
2021/04/17 05:31:43;;;;;;;36.10;33.28;;;4.00;83.40;;;;;;5091863;28;20230;-76
2021/04/17 05:34:09;;;;;;;34.42;31.83;;;4.10;83.50;;;;;;5092192;28;20207;-76
2021/04/17 05:36:36;;;;;;;35.20;32.50;;;4.10;83.50;;;;;;5091286;28;20195;-76
2021/04/17 05:39:04;;;;;;;35.38;32.58;;;4.10;83.30;;;;;;5092138;28;20200;-76
2021/04/17 05:41:31;;;;;;;37.00;34.30;;;4.30;83.20;;;;;;5091900;28;20226;-76
2021/04/17 05:43:58;;;;;;;34.70;31.50;;;4.40;82.90;;;;;;5091960;28;20289;-76
2021/04/17 05:46:24;;;;;;;36.85;34.15;;;4.60;82.40;;;;;;5091081;28;20199;-76
2021/04/17 05:48:51;;;;;;;37.53;34.83;;;4.70;81.70;;;;;;5091877;28;20231;-76
2021/04/17 05:51:17;;;;;;;34.70;32.30;;;4.80;81.30;;;;;;5091558;28;20223;-76
2021/04/17 05:53:44;;;;;;;34.95;31.98;;;4.80;81.40;;;;;;5091700;28;20286;-76
2021/04/17 05:56:10;;;;;;;39.45;36.72;;;4.80;81.10;;;;;;5091386;28;20625;-76
2021/04/17 05:58:37;;;;;;;38.10;35.28;;;4.80;81.50;;;;;;5091756;28;20282;-76
2021/04/17 06:01:04;;;;;;;37.78;34.78;;;5.00;80.90;;;;;;5091567;28;20221;-77
2021/04/17 06:03:30;;;;;;;35.00;32.53;;;5.20;80.50;;;;;;5091798;28;20656;-76
2021/04/17 06:05:57;;;;;;;36.33;33.58;;;5.30;79.90;;;;;;5091098;28;20285;-76
2021/04/17 06:08:23;;;;;;;34.85;32.25;;;5.40;79.70;;;;;;5093705;28;20195;-76
2021/04/17 06:10:49;;;;;;;37.60;34.80;;;5.50;79.40;;;;;;5095257;28;20310;-76
2021/04/17 06:13:16;;;;;;;41.00;37.83;;;5.70;79.00;;;;;;5095504;28;20282;-76
2021/04/17 06:15:43;;;;;;;37.55;34.70;;;5.80;78.80;;;;;;5094316;28;20249;-76
2021/04/17 06:18:09;;;;;;;36.20;33.55;;;5.90;78.40;;;;;;5095410;28;20318;-76
2021/04/17 06:20:36;;;;;;;35.75;33.03;;;5.90;78.20;;;;;;5094960;28;20211;-76
2021/04/17 06:23:02;;;;;;;35.13;32.55;;;6.10;77.80;;;;;;5094908;28;20252;-76
2021/04/17 06:25:29;;;;;;;35.17;32.67;;;6.20;77.70;;;;;;5094802;28;20282;-76
2021/04/17 06:27:56;;;;;;;36.17;33.45;;;6.20;82.30;;;;;;5094926;28;20737;-76
2021/04/17 06:30:22;;;;;;;35.38;32.75;;;6.40;81.90;;;;;;5094923;28;20306;-76
2021/04/17 06:32:50;;;;;;;39.13;35.55;;;6.60;79.80;;;;;;5094699;28;20795;-76
2021/04/17 06:35:16;;;;;;;37.53;34.72;;;6.90;76.90;;;;;;5094932;28;20204;-76
2021/04/17 06:37:42;;;;;;;37.15;34.15;;;6.90;75.30;;;;;;5094335;28;20282;-76
2021/04/17 06:40:09;;;;;;;38.05;35.25;;;7.00;75.00;;;;;;5094603;28;20228;-76
2021/04/17 06:42:39;;;;;;;38.25;35.20;;;7.10;74.80;;;;;;5095085;28;20195;-76
2021/04/17 06:45:07;;;;;;;39.47;36.17;;;7.20;73.70;;;;;;5094661;28;20191;-76
2021/04/17 06:47:35;;;;;;;38.33;35.42;;;7.40;73.40;;;;;;5094016;28;20221;-76
2021/04/17 06:50:04;;;;;;;38.40;35.65;;;7.40;75.30;;;;;;5094601;28;20302;-75
2021/04/17 06:52:32;;;;;;;40.42;37.15;;;7.70;72.60;;;;;;5094633;28;20309;-75
2021/04/17 06:54:59;;;;;;;38.65;35.55;;;7.80;71.50;;;;;;5094610;28;20194;-75
2021/04/17 06:57:25;;;;;;;38.25;35.35;;;7.80;71.30;;;;;;5093899;28;20199;-76
2021/04/17 06:59:52;;;;;;;37.08;34.38;;;7.80;70.50;;;;;;5094283;28;20680;-76
2021/04/17 07:02:18;;;;;;;37.67;34.88;;;7.80;70.50;;;;;;5094184;28;20238;-76
2021/04/17 07:04:45;;;;;;;37.85;35.15;;;7.80;70.60;;;;;;5094441;28;20679;-76
2021/04/17 07:07:13;;;;;;;39.15;36.05;;;7.90;71.30;;;;;;5093730;28;20656;-76
2021/04/17 07:09:39;;;;;;;40.13;36.72;;;8.10;70.90;;;;;;5094310;28;20289;-76
2021/04/17 07:12:07;;;;;;;39.00;36.20;;;8.10;74.50;;;;;;5094019;28;20222;-76
2021/04/17 07:14:44;;;;;;;41.03;38.05;;;8.10;73.40;;;;;;5094019;28;20202;-76
2021/04/17 07:17:11;;;;;;;40.40;37.50;;;8.30;72.90;;;;;;5092988;28;20199;-76
2021/04/17 07:19:52;;;;;;;38.65;35.85;;;8.50;70.50;;;;;;5093740;28;20668;-76
2021/04/17 07:22:21;;;;;;;39.90;36.88;;;8.70;67.80;;;;;;5093743;28;20198;-76
2021/04/17 07:24:50;;;;;;;36.78;34.22;;;8.70;67.40;;;;;;5093833;28;20234;-76
2021/04/17 07:27:33;;;;;;;42.60;39.10;;;8.90;67.10;;;;;;5093214;28;20726;-76
2021/04/17 07:30:00;;;;;;;39.80;36.80;;;9.20;66.50;;;;;;5093816;28;20211;-76
2021/04/17 07:32:27;;;;;;;36.83;34.03;;;9.10;66.40;;;;;;5093641;28;20225;-76
2021/04/17 07:35:12;;;;;;;39.75;36.72;;;9.10;66.90;;;;;;5093736;28;20230;-76
2021/04/17 07:37:42;;;;;;;38.50;35.60;;;9.30;66.00;;;;;;5093294;28;20200;-76
2021/04/17 07:40:18;;;;;;;37.50;34.70;;;9.40;65.60;;;;;;5093618;28;20219;-76
2021/04/17 07:42:46;;;;;;;37.08;34.15;;;9.60;64.40;;;;;;5093478;28;20198;-76
2021/04/17 07:45:27;;;;;;;37.83;35.22;;;9.80;63.90;;;;;;5093348;28;20199;-76
2021/04/17 07:47:56;;;;;;;36.70;34.00;;;9.60;63.50;;;;;;5093339;28;20629;-76
2021/04/17 07:50:23;;;;;;;36.65;33.95;;;9.60;63.70;;;;;;5093290;28;20223;-76
2021/04/17 07:52:50;;;;;;;35.55;33.00;;;9.70;66.00;;;;;;5093189;28;20680;-76
2021/04/17 07:55:18;;;;;;;36.90;34.05;;;9.70;64.70;;;;;;5093323;28;20195;-76
2021/04/17 07:57:46;;;;;;;37.13;34.33;;;9.50;63.30;;;;;;5092915;28;20210;-76
2021/04/17 08:00:15;;;;;;;37.05;34.15;;;9.50;62.20;;;;;;5093082;28;20253;-76
2021/04/17 08:02:43;;;;;;;38.20;35.25;;;9.40;62.40;;;;;;5093201;28;20305;-76
2021/04/17 08:05:12;;;;;;;40.05;37.15;;;9.40;63.00;;;;;;5093014;28;20199;-76
2021/04/17 08:07:40;;;;;;;37.85;34.88;;;9.30;63.20;;;;;;5092677;28;20274;-77
2021/04/17 08:10:09;;;;;;;36.67;33.92;;;9.50;62.70;;;;;;5093099;28;20253;-76
2021/04/17 08:12:37;;;;;;;35.53;32.92;;;9.80;61.50;;;;;;5092947;28;20306;-76
2021/04/17 08:15:05;;;;;;;34.92;32.53;;;9.60;61.20;;;;;;5092721;28;20195;-76
2021/04/17 08:17:32;;;;;;;35.67;33.15;;;9.60;61.30;;;;;;5091874;28;20199;-75
2021/04/17 08:19:58;;;;;;;35.30;32.67;;;9.60;61.80;;;;;;5092904;28;20215;-76
2021/04/17 08:22:26;;;;;;;32.47;30.15;;;9.70;60.80;;;;;;5092569;28;20205;-75
2021/04/17 08:24:54;;;;;;;36.20;33.63;;;9.60;61.20;;;;;;5092758;28;20257;-75
2021/04/17 08:27:22;;;;;;;33.95;31.55;;;9.60;61.00;;;;;;5092176;28;20289;-75
2021/04/17 08:29:50;;;;;;;33.55;31.05;;;9.70;60.90;;;;;;5092177;28;20613;-75
2021/04/17 08:32:28;;;;;;;36.40;33.63;;;9.70;60.90;;;;;;5092426;28;20215;-76
2021/04/17 08:34:59;;;;;;;33.65;31.15;;;10.00;59.70;;;;;;5092533;28;20206;-76
2021/04/17 08:37:26;;;;;;;32.35;30.15;;;10.10;59.30;;;;;;5092085;28;20564;-76
2021/04/17 08:39:54;;;;;;;30.98;28.98;;;10.10;58.60;;;;;;5092542;28;20341;-76
2021/04/17 08:42:42;;;;;;;32.38;30.00;;;10.10;57.50;;;;;;5092396;28;20542;-76
2021/04/17 08:45:20;;;;;;;32.05;29.95;;;10.20;58.30;;;;;;5092498;28;20210;-77
2021/04/17 08:47:52;;;;;;;31.25;29.20;;;10.40;57.00;;;;;;5092510;28;20203;-76
2021/04/17 08:50:24;;;;;;;31.50;29.40;;;10.40;57.10;;;;;;5092732;28;20215;-76
2021/04/17 08:53:03;;;;;;;29.73;27.63;;;10.20;57.80;;;;;;5092553;28;20242;-76
2021/04/17 08:55:43;;;;;;;34.03;31.50;;;10.30;59.80;;;;;;5092337;28;20249;-75
2021/04/17 08:58:16;;;;;;;33.28;30.60;;;10.40;58.10;;;;;;5092992;28;20195;-76
2021/04/17 09:01:03;;;;;;;32.17;29.90;;;10.50;63.60;;;;;;5092297;28;20689;-76
2021/04/17 09:03:39;;;;;;;33.63;31.23;;;10.80;58.30;;;;;;5092485;28;20957;-76
2021/04/17 09:06:07;;;;;;;35.03;32.53;;;11.00;56.90;;;;;;5092430;28;20532;-76
2021/04/17 09:08:37;;;;;;;33.57;31.10;;;11.00;57.20;;;;;;5092469;28;20532;-76
2021/04/17 09:11:35;;;;;;;33.43;31.23;;;11.20;56.30;;;;;;5091987;28;20511;-76
2021/04/17 09:14:03;;;;;;;33.17;30.67;;;11.10;56.10;;;;;;5092146;28;20460;-76
2021/04/17 09:16:47;;;;;;;30.53;28.33;;;11.10;55.80;;;;;;5091082;28;20468;-76
2021/04/17 09:19:34;;;;;;;30.43;28.43;;;11.10;57.20;;;;;;5092135;28;20524;-76
2021/04/17 09:22:00;;;;;;;32.30;29.97;;;11.20;55.30;;;;;;5091778;28;20460;-76
2021/04/17 09:24:27;;;;;;;33.27;30.83;;;11.40;55.10;;;;;;5092160;28;20452;-76
2021/04/17 09:26:53;;;;;;;34.70;32.13;;;11.50;56.40;;;;;;5091719;28;20445;-76
2021/04/17 09:29:26;;;;;;;31.53;29.43;;;11.60;56.00;;;;;;5092134;28;20498;-76
2021/04/17 09:31:57;;;;;;;32.43;30.00;;;11.90;56.80;;;;;;5092021;28;20465;-77
2021/04/17 09:34:23;;;;;;;30.33;28.27;;;12.10;56.40;;;;;;5092046;28;20457;-77
2021/04/17 09:36:50;;;;;;;33.27;30.97;;;12.30;53.70;;;;;;5091675;28;20550;-78
2021/04/17 09:39:31;;;;;;;32.07;29.80;;;12.10;52.40;;;;;;5092037;28;21076;-76
2021/04/17 09:41:59;;;;;;;31.87;29.77;;;11.60;53.60;;;;;;5093265;28;20440;-77
2021/04/17 09:44:42;;;;;;;31.97;29.63;;;11.60;54.20;;;;;;5095847;28;20554;-77
2021/04/17 09:47:09;;;;;;;33.93;31.33;;;11.50;54.10;;;;;;5095297;28;20532;-76
2021/04/17 09:49:38;;;;;;;32.00;29.80;;;11.50;54.60;;;;;;5095892;28;20505;-76
2021/04/17 09:52:05;;;;;;;31.57;29.37;;;11.60;54.80;;;;;;5095665;28;20564;-76
2021/04/17 09:54:32;;;;;;;30.93;28.90;;;11.70;53.60;;;;;;5095792;28;20453;-76
2021/04/17 09:57:05;;;;;;;31.47;29.47;;;11.70;53.70;;;;;;5095184;28;20475;-77
2021/04/17 09:59:33;;;;;;;31.10;29.10;;;11.60;54.30;;;;;;5095462;28;20452;-77
2021/04/17 10:01:59;;;;;;;31.40;29.17;;;11.50;54.40;;;;;;5095727;28;20539;-76
2021/04/17 10:04:51;;;;;;;31.20;29.00;;;11.70;54.60;;;;;;5095525;28;20536;-77
2021/04/17 10:07:18;;;;;;;30.20;28.27;;;11.90;56.20;;;;;;5094939;28;20453;-77
2021/04/17 10:09:59;;;;;;;30.80;28.80;;;12.20;54.00;;;;;;5095246;28;20469;-77
2021/04/17 10:12:25;;;;;;;30.20;28.20;;;12.50;53.50;;;;;;5095171;28;20559;-77
2021/04/17 10:14:53;;;;;;;29.77;27.87;;;12.50;51.00;;;;;;5095385;28;20509;-77
2021/04/17 10:17:20;;;;;;;29.47;27.57;;;12.20;51.00;;;;;;5094375;28;21047;-76
2021/04/17 10:19:46;;;;;;;28.60;26.67;;;12.20;50.60;;;;;;5095053;28;20473;-76
2021/04/17 10:22:12;;;;;;;30.10;28.13;;;12.40;50.00;;;;;;5094795;28;20456;-76
2021/04/17 10:24:41;;;;;;;29.20;27.30;;;12.40;50.70;;;;;;5095443;28;20453;-76
2021/04/17 10:27:10;;;;;;;28.87;26.87;;;12.70;50.70;;;;;;5094499;28;20445;-77
2021/04/17 10:29:39;;;;;;;31.43;29.43;;;13.00;49.40;;;;;;5095019;28;20532;-77
2021/04/17 10:32:12;;;;;;;28.40;26.60;;;12.70;50.10;;;;;;5094862;28;20564;-77
2021/04/17 10:34:40;;;;;;;30.13;28.00;;;12.50;51.20;;;;;;5095004;28;20962;-76
2021/04/17 10:37:08;;;;;;;27.67;25.97;;;12.70;50.50;;;;;;5094297;28;20449;-76
2021/04/17 10:39:35;;;;;;;28.60;26.83;;;12.60;50.10;;;;;;5094647;28;20453;-77
2021/04/17 10:42:05;;;;;;;28.70;26.63;;;12.50;49.70;;;;;;5094844;28;20548;-77
2021/04/17 10:44:32;;;;;;;28.63;26.80;;;12.70;50.30;;;;;;5094930;28;20449;-77
2021/04/17 10:47:00;;;;;;;31.10;29.00;;;12.80;49.50;;;;;;5093956;28;20552;-77
2021/04/17 10:49:34;;;;;;;28.73;26.93;;;13.20;49.70;;;;;;5094611;28;20468;-77
2021/04/17 10:52:02;;;;;;;29.23;27.50;;;13.20;48.90;;;;;;5094524;28;20481;-79
2021/04/17 10:54:28;;;;;;;27.70;25.83;;;13.20;47.90;;;;;;5093730;28;20453;-77
2021/04/17 10:57:00;;;;;;;28.07;26.17;;;12.60;48.40;;;;;;5094065;28;20502;-77
2021/04/17 10:59:26;;;;;;;28.47;26.13;;;12.50;49.70;;;;;;5094183;28;20969;-77
2021/04/17 11:01:52;;;;;;;28.13;26.10;;;12.70;48.30;;;;;;5094404;28;20518;-77
2021/04/17 11:04:19;;;;;;;28.80;26.83;;;12.40;49.20;;;;;;5094340;28;21024;-77
2021/04/17 11:06:48;;;;;;;27.10;25.30;;;12.40;49.10;;;;;;5093796;28;20961;-77
2021/04/17 11:09:16;;;;;;;27.80;25.90;;;12.50;49.40;;;;;;5094278;28;20506;-77
2021/04/17 11:11:54;;;;;;;27.23;25.53;;;12.80;49.10;;;;;;5094145;28;20511;-78
2021/04/17 11:14:21;;;;;;;26.00;24.50;;;12.90;48.00;;;;;;5093977;28;20530;-77
2021/04/17 11:16:51;;;;;;;27.57;25.80;;;12.80;48.30;;;;;;5093027;28;20937;-76
2021/04/17 11:19:27;;;;;;;27.70;26.10;;;12.90;48.10;;;;;;5094140;28;20483;-75
2021/04/17 11:22:08;;;;;;;27.30;25.40;;;12.70;48.40;;;;;;5093735;28;20943;-75
2021/04/17 11:24:35;;;;;;;28.83;27.13;;;13.00;47.00;;;;;;5093930;28;20500;-79
2021/04/17 11:27:01;;;;;;;28.77;26.77;;;12.80;46.40;;;;;;5093292;28;20455;-75
2021/04/17 11:29:28;;;;;;;28.00;26.10;;;12.70;48.50;;;;;;5093839;28;21007;-75
2021/04/17 11:31:54;;;;;;;26.60;24.90;;;13.00;47.80;;;;;;5093775;28;20891;-78
2021/04/17 11:34:20;;;;;;;25.07;23.57;;;13.00;47.90;;;;;;5093836;28;20558;-76
2021/04/17 11:36:47;;;;;;;25.77;24.37;;;13.10;47.50;;;;;;5093082;28;20461;-78
2021/04/17 11:39:15;;;;;;;29.70;27.67;;;13.20;47.10;;;;;;5093851;28;20548;-77
2021/04/17 11:41:42;;;;;;;26.93;25.10;;;13.10;47.50;;;;;;5093556;28;20475;-75
2021/04/17 11:44:08;;;;;;;26.00;24.47;;;13.10;47.50;;;;;;5093926;28;20532;-75
2021/04/17 11:46:36;;;;;;;25.73;24.23;;;13.00;47.70;;;;;;5092821;28;20525;-76
2021/04/17 11:49:03;;;;;;;29.80;27.80;;;13.10;48.00;;;;;;5093597;28;20449;-76
2021/04/17 11:51:33;;;;;;;26.40;24.80;;;12.90;47.50;;;;;;5093754;28;20556;-75
2021/04/17 11:54:00;;;;;;;27.77;25.80;;;12.60;48.00;;;;;;5101686;28;20457;-75
2021/04/17 11:56:28;;;;;;;26.47;24.97;;;12.70;47.70;;;;;;5093988;28;20457;-76
2021/04/17 11:58:54;;;;;;;26.97;25.37;;;12.90;47.30;;;;;;5093271;28;20872;-75
2021/04/17 12:01:21;;;;;;;27.67;25.77;;;13.00;47.50;;;;;;5093132;28;20475;-76
2021/04/17 12:03:47;;;;;;;30.53;28.30;;;13.30;46.80;;;;;;5093253;28;20870;-76
2021/04/17 12:06:14;;;;;;;27.30;25.70;;;13.70;46.60;;;;;;5091568;28;20799;-76
2021/04/17 12:08:40;;;;;;;28.17;26.27;;;13.80;45.60;;;;;;5093240;28;20784;-75
2021/04/17 12:11:07;;;;;;;27.57;25.80;;;14.00;44.50;;;;;;5092980;28;20614;-76
2021/04/17 12:13:35;;;;;;;28.10;26.20;;;14.00;44.40;;;;;;5092947;28;21065;-76
2021/04/17 12:16:02;;;;;;;27.70;25.90;;;13.90;44.60;;;;;;5092047;28;20513;-76
2021/04/17 12:18:29;;;;;;;27.23;25.43;;;13.70;45.40;;;;;;5093005;28;20536;-76
2021/04/17 12:20:55;;;;;;;27.30;25.50;;;13.70;44.90;;;;;;5092369;28;21006;-77
2021/04/17 12:23:21;;;;;;;27.23;25.30;;;13.80;44.80;;;;;;5092873;28;20452;-76
2021/04/17 12:25:48;;;;;;;27.30;25.50;;;13.80;45.20;;;;;;5092462;28;20457;-75
2021/04/17 12:28:15;;;;;;;28.10;26.33;;;13.80;45.20;;;;;;5092916;28;20453;-75
2021/04/17 12:30:42;;;;;;;27.63;25.70;;;13.90;45.80;;;;;;5092447;28;20503;-76
2021/04/17 12:33:10;;;;;;;26.00;24.40;;;14.00;44.70;;;;;;5092465;28;20534;-76
2021/04/17 12:35:37;;;;;;;28.20;26.50;;;14.00;44.30;;;;;;5092059;28;20449;-76
2021/04/17 12:38:04;;;;;;;26.20;24.57;;;14.00;44.30;;;;;;5092735;28;20796;-76
2021/04/17 12:40:30;;;;;;;26.17;24.60;;;14.00;44.40;;;;;;5092557;28;21105;-76